createdAt,value
2019-04-27T00:00:18.040Z,8.20
2019-04-27T00:02:26.629Z,8.20
2019-04-27T00:04:34.482Z,8.20
2019-04-27T00:06:43.003Z,8.10
2019-04-27T00:08:49.605Z,8.10
2019-04-27T00:10:55.487Z,8.10
2019-04-27T00:13:02.179Z,8.10
2019-04-27T00:15:05.927Z,8.10
2019-04-27T00:17:14.003Z,8.10
2019-04-27T00:19:19.383Z,8.10
2019-04-27T00:21:24.683Z,8.10
2019-04-27T00:23:30.115Z,8.10
2019-04-27T00:25:33.701Z,8.20
2019-04-27T00:27:37.398Z,8.20
2019-04-27T00:29:41.043Z,8.20
2019-04-27T00:31:44.799Z,8.20
2019-04-27T00:33:48.500Z,8.20
2019-04-27T00:36:03.122Z,8.20
2019-04-27T00:38:08.489Z,8.20
2019-04-27T00:40:14.768Z,8.20
2019-04-27T00:42:18.485Z,8.20
2019-04-27T00:44:23.709Z,8.20
2019-04-27T00:46:27.444Z,8.20
2019-04-27T00:48:31.203Z,8.20
2019-04-27T00:50:34.872Z,8.20
2019-04-27T00:52:38.596Z,8.20
2019-04-27T00:54:44.011Z,8.20
2019-04-27T00:56:55.148Z,8.20
2019-04-27T00:59:16.384Z,8.20
2019-04-27T01:01:30.647Z,8.20
2019-04-27T01:03:35.954Z,8.20
2019-04-27T01:05:39.649Z,8.20
2019-04-27T01:07:43.496Z,8.20
2019-04-27T01:09:47.249Z,8.20
2019-04-27T01:11:50.915Z,8.10
2019-04-27T01:13:54.601Z,8.10
2019-04-27T01:15:58.263Z,8.10
2019-04-27T01:18:12.376Z,8.10
2019-04-27T01:20:08.676Z,8.10
2019-04-27T01:22:12.540Z,8.10
2019-04-27T01:24:16.415Z,8.10
2019-04-27T01:26:21.713Z,8.00
2019-04-27T01:28:29.691Z,8.00
2019-04-27T01:30:40.998Z,8.00
2019-04-27T01:32:44.721Z,8.00
2019-04-27T01:34:49.420Z,7.90
2019-04-27T01:36:53.041Z,7.90
2019-04-27T01:38:56.783Z,7.80
2019-04-27T01:41:00.636Z,7.80
2019-04-27T01:43:04.494Z,7.80
2019-04-27T01:45:08.608Z,7.70
2019-04-27T01:47:12.349Z,7.70
2019-04-27T01:49:16.154Z,7.70
2019-04-27T01:51:21.069Z,7.70
2019-04-27T01:53:24.864Z,7.60
2019-04-27T01:55:29.883Z,7.60
2019-04-27T01:57:33.505Z,7.60
2019-04-27T01:59:38.621Z,7.50
2019-04-27T02:02:00.627Z,7.50
2019-04-27T02:04:15.178Z,7.50
2019-04-27T02:06:20.757Z,7.50
2019-04-27T02:08:24.639Z,7.40
2019-04-27T02:10:29.304Z,7.40
2019-04-27T02:12:33.030Z,7.40
2019-04-27T02:14:36.709Z,7.40
2019-04-27T02:16:40.357Z,7.40
2019-04-27T02:18:44.147Z,7.40
2019-04-27T02:20:49.182Z,7.30
2019-04-27T02:22:52.882Z,7.30
2019-04-27T02:24:56.524Z,7.30
2019-04-27T02:27:00.114Z,7.20
2019-04-27T02:29:11.662Z,7.20
2019-04-27T02:31:19.205Z,7.10
2019-04-27T02:33:35.818Z,7.10
2019-04-27T02:35:41.905Z,7.10
2019-04-27T02:37:44.860Z,7.00
2019-04-27T02:39:50.049Z,7.00
2019-04-27T02:41:54.055Z,7.00
2019-04-27T02:44:01.674Z,6.90
2019-04-27T02:46:04.736Z,6.90
2019-04-27T02:48:09.821Z,6.90
2019-04-27T02:50:13.832Z,6.90
2019-04-27T02:52:21.726Z,6.90
2019-04-27T02:54:25.451Z,6.90
2019-04-27T02:56:30.553Z,6.90
2019-04-27T02:58:34.542Z,6.80
2019-04-27T03:00:40.093Z,6.80
2019-04-27T03:02:45.399Z,6.80
2019-04-27T03:04:49.881Z,6.80
2019-04-27T03:06:53.824Z,6.80
2019-04-27T03:09:00.010Z,6.80
2019-04-27T03:11:02.863Z,6.70
2019-04-27T03:13:14.461Z,6.70
2019-04-27T03:15:23.548Z,6.70
2019-04-27T03:17:40.886Z,6.70
2019-04-27T03:19:54.935Z,6.70
2019-04-27T03:22:00.365Z,6.70
2019-04-27T03:24:04.143Z,6.70
2019-04-27T03:26:24.666Z,6.60
2019-04-27T03:28:29.825Z,6.60
2019-04-27T03:30:35.798Z,6.60
2019-04-27T03:32:42.965Z,6.60
2019-04-27T03:34:45.661Z,6.60
2019-04-27T03:36:51.429Z,6.60
2019-04-27T03:38:54.725Z,6.70
2019-04-27T03:41:00.525Z,6.70
2019-04-27T03:43:11.841Z,6.70
2019-04-27T03:45:15.558Z,6.70
2019-04-27T03:47:19.937Z,6.70
2019-04-27T03:49:34.587Z,6.70
2019-04-27T03:51:30.939Z,6.80
2019-04-27T03:53:36.289Z,6.70
2019-04-27T03:55:50.137Z,6.70
2019-04-27T03:58:12.122Z,6.70
2019-04-27T04:00:20.706Z,6.70
2019-04-27T04:02:24.567Z,6.70
2019-04-27T04:04:29.670Z,6.70
2019-04-27T04:06:33.735Z,6.70
2019-04-27T04:08:39.515Z,6.70
2019-04-27T04:10:53.377Z,6.70
2019-04-27T04:13:01.996Z,6.70
2019-04-27T04:15:09.936Z,6.70
2019-04-27T04:17:24.363Z,6.60
2019-04-27T04:19:31.566Z,6.70
2019-04-27T04:21:33.366Z,6.60
2019-04-27T04:23:36.971Z,6.70
2019-04-27T04:25:41.146Z,6.70
2019-04-27T04:27:44.958Z,6.70
2019-04-27T04:29:49.296Z,6.80
2019-04-27T04:31:53.692Z,6.90
2019-04-27T04:33:59.538Z,6.90
2019-04-27T04:36:02.638Z,6.90
2019-04-27T04:38:06.394Z,7.00
2019-04-27T04:40:10.102Z,7.00
2019-04-27T04:42:19.757Z,7.00
2019-04-27T04:44:25.050Z,7.10
2019-04-27T04:46:33.622Z,7.20
2019-04-27T04:48:37.377Z,7.30
2019-04-27T04:50:42.322Z,7.40
2019-04-27T04:52:46.022Z,7.40
2019-04-27T04:54:49.763Z,7.50
2019-04-27T04:56:53.395Z,7.60
2019-04-27T04:58:57.368Z,7.60
2019-04-27T05:01:01.845Z,7.60
2019-04-27T05:03:05.740Z,7.60
2019-04-27T05:05:09.650Z,7.70
2019-04-27T05:07:13.367Z,7.70
2019-04-27T05:09:17.056Z,7.90
2019-04-27T05:11:20.762Z,8.00
2019-04-27T05:13:24.374Z,8.00
2019-04-27T05:15:29.345Z,8.10
2019-04-27T05:17:33.193Z,8.20
2019-04-27T05:19:38.823Z,8.20
2019-04-27T05:21:42.154Z,8.30
2019-04-27T05:23:45.843Z,8.30
2019-04-27T05:25:49.448Z,8.40
2019-04-27T05:27:53.084Z,8.50
2019-04-27T05:29:57.191Z,8.50
2019-04-27T05:32:00.840Z,8.50
2019-04-27T05:34:06.752Z,8.60
2019-04-27T05:36:09.829Z,8.60
2019-04-27T05:38:13.707Z,8.60
2019-04-27T05:40:18.920Z,8.70
2019-04-27T05:42:22.787Z,8.70
2019-04-27T05:44:32.613Z,8.80
2019-04-27T05:46:39.506Z,8.80
2019-04-27T05:48:43.129Z,8.70
2019-04-27T05:50:51.412Z,8.80
2019-04-27T05:52:51.921Z,8.80
2019-04-27T05:54:55.700Z,8.90
2019-04-27T05:56:59.365Z,9.00
2019-04-27T05:59:02.985Z,9.00
2019-04-27T06:01:06.624Z,9.00
2019-04-27T06:03:10.197Z,9.00
2019-04-27T06:05:13.967Z,9.10
2019-04-27T06:07:19.308Z,9.10
2019-04-27T06:09:23.186Z,9.10
2019-04-27T06:11:28.438Z,9.10
2019-04-27T06:13:32.208Z,9.10
2019-04-27T06:15:35.961Z,9.20
2019-04-27T06:17:39.604Z,9.20
2019-04-27T06:19:43.963Z,9.20
2019-04-27T06:21:47.644Z,9.30
2019-04-27T06:23:51.235Z,9.30
2019-04-27T06:25:54.919Z,9.30
2019-04-27T06:27:59.260Z,9.30
2019-04-27T06:30:04.954Z,9.40
2019-04-27T06:32:09.036Z,9.40
2019-04-27T06:34:14.295Z,9.40
2019-04-27T06:36:19.927Z,9.40
2019-04-27T06:38:23.295Z,9.40
2019-04-27T06:40:28.928Z,9.40
2019-04-27T06:42:32.262Z,9.40
2019-04-27T06:44:35.990Z,9.30
2019-04-27T06:46:40.484Z,9.40
2019-04-27T06:48:44.319Z,9.40
2019-04-27T06:50:50.198Z,9.40
2019-04-27T06:52:53.267Z,9.40
2019-04-27T06:54:57.026Z,9.40
2019-04-27T06:57:00.653Z,9.40
2019-04-27T06:59:04.439Z,9.30
2019-04-27T07:01:09.497Z,9.30
2019-04-27T07:03:13.546Z,9.30
2019-04-27T07:05:18.557Z,9.40
2019-04-27T07:07:22.576Z,9.40
2019-04-27T07:09:26.218Z,9.40
2019-04-27T07:11:29.988Z,9.30
2019-04-27T07:13:33.692Z,9.30
2019-04-27T07:15:38.691Z,9.40
2019-04-27T07:17:42.523Z,9.40
2019-04-27T07:19:46.292Z,9.50
2019-04-27T07:21:50.333Z,9.60
2019-04-27T07:23:59.243Z,9.60
2019-04-27T07:26:03.298Z,9.60
2019-04-27T07:28:09.062Z,9.60
2019-04-27T07:30:13.194Z,9.60
2019-04-27T07:32:16.835Z,9.70
2019-04-27T07:34:20.565Z,9.70
2019-04-27T07:36:24.388Z,9.70
2019-04-27T07:38:29.357Z,9.70
2019-04-27T07:40:33.241Z,9.70
2019-04-27T07:42:36.947Z,9.80
2019-04-27T07:44:51.672Z,9.80
2019-04-27T07:47:13.296Z,9.80
2019-04-27T07:49:16.879Z,9.80
2019-04-27T07:51:31.678Z,9.80
2019-04-27T07:53:26.182Z,9.90
2019-04-27T07:55:30.527Z,10.00
2019-04-27T07:57:34.296Z,10.10
2019-04-27T07:59:41.660Z,10.10
2019-04-27T08:01:43.332Z,10.10
2019-04-27T08:03:46.959Z,10.20
2019-04-27T08:05:50.745Z,10.20
2019-04-27T08:07:54.504Z,10.30
2019-04-27T08:10:01.186Z,10.40
2019-04-27T08:12:03.779Z,10.40
2019-04-27T08:14:08.840Z,10.40
2019-04-27T08:16:12.877Z,10.50
2019-04-27T08:18:18.817Z,10.60
2019-04-27T08:20:22.214Z,10.60
2019-04-27T08:22:25.952Z,10.70
2019-04-27T08:24:29.696Z,10.80
2019-04-27T08:26:39.493Z,10.90
2019-04-27T08:28:50.812Z,11.00
2019-04-27T08:31:00.396Z,11.10
2019-04-27T08:33:05.980Z,11.20
2019-04-27T08:35:10.053Z,11.10
2019-04-27T08:37:13.786Z,11.10
2019-04-27T08:39:18.678Z,11.10
2019-04-27T08:41:22.473Z,11.10
2019-04-27T08:43:26.283Z,11.10
2019-04-27T08:45:30.090Z,11.10
2019-04-27T08:47:33.855Z,11.10
2019-04-27T08:49:39.275Z,11.10
2019-04-27T08:51:42.944Z,11.20
2019-04-27T08:53:46.626Z,11.30
2019-04-27T08:55:52.710Z,11.40
2019-04-27T08:57:58.560Z,11.50
2019-04-27T09:00:01.999Z,11.60
2019-04-27T09:02:08.779Z,11.80
2019-04-27T09:04:12.756Z,12.00
2019-04-27T09:06:16.392Z,12.20
2019-04-27T09:08:21.784Z,12.30
2019-04-27T09:10:45.631Z,12.10
2019-04-27T09:12:53.504Z,12.00
2019-04-27T09:15:03.939Z,11.80
2019-04-27T09:17:09.688Z,11.70
2019-04-27T09:19:29.060Z,11.60
2019-04-27T09:21:39.927Z,11.40
2019-04-27T09:23:43.596Z,11.10
2019-04-27T09:25:47.317Z,10.90
2019-04-27T09:27:50.950Z,10.80
2019-04-27T09:29:54.543Z,10.70
2019-04-27T09:31:59.587Z,10.70
2019-04-27T09:34:05.566Z,10.70
2019-04-27T09:36:09.201Z,10.80
2019-04-27T09:38:13.178Z,10.80
2019-04-27T09:40:17.188Z,10.70
2019-04-27T09:42:20.894Z,10.80
2019-04-27T09:44:26.544Z,10.80
2019-04-27T09:46:30.009Z,10.80
2019-04-27T09:48:33.679Z,10.90
2019-04-27T09:50:37.304Z,10.90
2019-04-27T09:52:41.131Z,11.00
2019-04-27T09:54:45.030Z,11.00
2019-04-27T09:56:48.786Z,10.90
2019-04-27T09:58:52.436Z,10.80
2019-04-27T10:00:56.798Z,10.70
2019-04-27T10:03:00.899Z,10.50
2019-04-27T10:05:06.817Z,10.50
2019-04-27T10:07:10.667Z,10.50
2019-04-27T10:09:15.906Z,10.60
2019-04-27T10:11:19.947Z,10.60
2019-04-27T10:13:23.805Z,10.70
2019-04-27T10:15:27.548Z,10.70
2019-04-27T10:17:31.330Z,10.70
2019-04-27T10:19:36.585Z,10.70
2019-04-27T10:21:40.419Z,10.70
2019-04-27T10:23:44.291Z,10.70
2019-04-27T10:25:48.008Z,10.70
2019-04-27T10:27:53.485Z,10.60
2019-04-27T10:29:58.501Z,10.60
2019-04-27T10:32:02.526Z,10.50
2019-04-27T10:34:06.338Z,10.50
2019-04-27T10:36:10.060Z,10.50
2019-04-27T10:38:15.379Z,10.40
2019-04-27T10:40:19.134Z,10.50
2019-04-27T10:42:22.870Z,10.60
2019-04-27T10:44:26.719Z,10.70
2019-04-27T10:46:30.416Z,10.70
2019-04-27T10:48:34.094Z,10.80
2019-04-27T10:50:37.739Z,10.80
2019-04-27T10:52:52.853Z,10.80
2019-04-27T10:54:46.778Z,10.80
2019-04-27T10:56:50.464Z,10.90
2019-04-27T10:58:55.750Z,10.90
2019-04-27T11:01:01.259Z,10.90
2019-04-27T11:03:06.573Z,10.90
2019-04-27T11:05:18.254Z,10.90
2019-04-27T11:07:23.667Z,10.90
2019-04-27T11:09:27.597Z,10.90
2019-04-27T11:11:32.802Z,10.90
2019-04-27T11:13:38.323Z,11.00
2019-04-27T11:15:42.074Z,11.00
2019-04-27T11:17:47.522Z,11.00
2019-04-27T11:19:51.187Z,11.00
2019-04-27T11:21:54.943Z,11.20
2019-04-27T11:23:58.723Z,11.30
2019-04-27T11:26:02.585Z,11.20
2019-04-27T11:28:06.217Z,11.20
2019-04-27T11:30:10.883Z,11.20
2019-04-27T11:32:15.904Z,11.20
2019-04-27T11:34:22.877Z,11.30
2019-04-27T11:36:28.546Z,11.30
2019-04-27T11:38:32.216Z,11.40
2019-04-27T11:40:36.433Z,11.40
2019-04-27T11:42:41.414Z,11.30
2019-04-27T11:44:46.935Z,11.30
2019-04-27T11:46:50.784Z,11.30
2019-04-27T11:48:58.042Z,11.30
2019-04-27T11:51:00.723Z,11.30
2019-04-27T11:53:06.239Z,11.20
2019-04-27T11:55:12.333Z,11.20
2019-04-27T11:57:16.500Z,11.20
2019-04-27T11:59:20.827Z,11.30
2019-04-27T12:01:24.579Z,11.30
2019-04-27T12:03:28.551Z,11.30
2019-04-27T12:05:32.369Z,11.30
2019-04-27T12:07:36.146Z,11.30
2019-04-27T12:09:40.172Z,11.30
2019-04-27T12:11:44.101Z,11.30
2019-04-27T12:13:48.041Z,11.30
2019-04-27T12:15:52.180Z,11.40
2019-04-27T12:17:56.302Z,11.20
2019-04-27T12:20:00.378Z,10.90
2019-04-27T12:22:06.189Z,10.70
2019-04-27T12:24:10.154Z,10.60
2019-04-27T12:26:15.884Z,10.40
2019-04-27T12:28:25.617Z,10.30
2019-04-27T12:30:39.838Z,10.20
2019-04-27T12:32:43.426Z,10.00
2019-04-27T12:34:47.104Z,10.00
2019-04-27T12:36:53.125Z,9.90
2019-04-27T12:38:56.634Z,9.90
2019-04-27T12:41:00.501Z,9.90
2019-04-27T12:43:04.318Z,10.00
2019-04-27T12:45:08.326Z,10.00
2019-04-27T12:47:12.014Z,9.90
2019-04-27T12:49:17.404Z,9.90
2019-04-27T12:51:21.246Z,9.90
2019-04-27T12:53:48.054Z,9.90
2019-04-27T12:55:46.472Z,10.00
2019-04-27T12:58:07.839Z,10.00
2019-04-27T13:00:22.145Z,10.20
2019-04-27T13:02:28.366Z,10.30
2019-04-27T13:04:32.040Z,10.30
2019-04-27T13:06:35.853Z,10.30
2019-04-27T13:08:39.593Z,10.20
2019-04-27T13:10:43.214Z,10.30
2019-04-27T13:12:46.818Z,10.20
2019-04-27T13:14:50.444Z,10.20
2019-04-27T13:16:56.026Z,10.20
2019-04-27T13:19:00.537Z,10.20
2019-04-27T13:21:04.277Z,10.20
2019-04-27T13:23:07.953Z,10.20
2019-04-27T13:25:12.056Z,10.20
2019-04-27T13:27:16.665Z,10.20
2019-04-27T13:29:20.294Z,10.30
2019-04-27T13:31:25.674Z,10.30
2019-04-27T13:33:29.549Z,10.30
2019-04-27T13:35:34.167Z,10.30
2019-04-27T13:37:39.545Z,10.30
2019-04-27T13:39:43.121Z,10.40
2019-04-27T13:41:46.911Z,10.20
2019-04-27T13:43:50.572Z,10.20
2019-04-27T13:45:55.784Z,10.20
2019-04-27T13:48:19.048Z,10.20
2019-04-27T13:50:30.485Z,10.30
2019-04-27T13:52:36.184Z,10.20
2019-04-27T13:54:39.860Z,10.10
2019-04-27T13:56:43.540Z,10.10
2019-04-27T13:58:47.259Z,10.00
2019-04-27T14:00:50.980Z,10.10
2019-04-27T14:02:54.617Z,10.10
2019-04-27T14:04:58.376Z,10.10
2019-04-27T14:07:02.160Z,10.10
2019-04-27T14:09:09.207Z,10.30
2019-04-27T14:11:13.229Z,10.30
2019-04-27T14:13:18.060Z,10.40
2019-04-27T14:15:22.303Z,10.50
2019-04-27T14:17:25.970Z,10.60
2019-04-27T14:19:29.535Z,10.80
2019-04-27T14:21:33.302Z,10.90
2019-04-27T14:23:38.590Z,11.10
2019-04-27T14:25:42.494Z,11.30
2019-04-27T14:27:46.179Z,11.20
2019-04-27T14:29:49.959Z,11.10
2019-04-27T14:31:53.733Z,11.00
2019-04-27T14:33:58.718Z,11.00
2019-04-27T14:36:03.312Z,11.00
2019-04-27T14:38:09.050Z,11.10
2019-04-27T14:40:13.968Z,11.30
2019-04-27T14:42:19.142Z,11.50
2019-04-27T14:44:23.056Z,11.60
2019-04-27T14:46:28.357Z,11.60
2019-04-27T14:48:32.143Z,11.60
2019-04-27T14:50:36.089Z,11.70
2019-04-27T14:52:40.920Z,11.90
2019-04-27T14:54:48.188Z,12.00
2019-04-27T14:56:50.063Z,12.00
2019-04-27T14:58:53.953Z,12.10
2019-04-27T15:00:58.535Z,12.30
2019-04-27T15:03:02.415Z,12.30
2019-04-27T15:05:07.417Z,12.40
2019-04-27T15:07:11.129Z,12.30
2019-04-27T15:09:17.987Z,12.30
2019-04-27T15:11:20.193Z,12.40
2019-04-27T15:13:23.899Z,12.50
2019-04-27T15:15:28.385Z,12.70
2019-04-27T15:17:32.143Z,12.90
2019-04-27T15:19:37.459Z,13.20
2019-04-27T15:21:46.005Z,13.50
2019-04-27T15:23:48.313Z,13.70
2019-04-27T15:25:51.910Z,13.80
2019-04-27T15:28:07.477Z,13.70
2019-04-27T15:30:14.364Z,13.40
2019-04-27T15:32:33.544Z,13.10
2019-04-27T15:34:40.334Z,12.80
2019-04-27T15:36:58.367Z,12.50
2019-04-27T15:39:03.753Z,11.90
2019-04-27T15:41:24.247Z,10.90
2019-04-27T15:43:31.081Z,10.30
2019-04-27T15:45:34.872Z,10.00
2019-04-27T15:47:42.515Z,9.60
2019-04-27T15:49:49.811Z,9.00
2019-04-27T15:51:50.718Z,8.70
2019-04-27T15:53:54.691Z,8.70
2019-04-27T15:56:01.760Z,8.40
2019-04-27T15:58:03.938Z,8.30
2019-04-27T16:00:17.183Z,8.20
2019-04-27T16:02:18.540Z,8.10
2019-04-27T16:04:21.440Z,8.00
2019-04-27T16:06:25.069Z,8.10
2019-04-27T16:08:28.899Z,8.20
2019-04-27T16:10:36.641Z,8.30
2019-04-27T16:12:40.758Z,8.40
2019-04-27T16:14:44.263Z,8.50
2019-04-27T16:16:48.747Z,8.60
2019-04-27T16:18:52.563Z,8.70
2019-04-27T16:20:56.241Z,8.80
2019-04-27T16:23:03.101Z,8.90
2019-04-27T16:25:08.338Z,9.10
2019-04-27T16:27:12.044Z,9.20
2019-04-27T16:29:15.809Z,9.40
2019-04-27T16:31:20.420Z,9.50
2019-04-27T16:33:24.286Z,9.50
2019-04-27T16:35:28.333Z,9.50
2019-04-27T16:37:36.666Z,9.50
2019-04-27T16:39:45.385Z,9.50
2019-04-27T16:41:45.664Z,9.50
2019-04-27T16:43:49.415Z,9.60
2019-04-27T16:45:57.940Z,9.50
2019-04-27T16:48:01.801Z,9.50
2019-04-27T16:50:08.292Z,9.40
2019-04-27T16:52:15.932Z,9.30
2019-04-27T16:54:21.046Z,9.20
2019-04-27T16:56:24.610Z,9.20
2019-04-27T16:58:28.555Z,9.20
2019-04-27T17:00:32.667Z,9.20
2019-04-27T17:02:38.010Z,9.20
2019-04-27T17:04:45.079Z,9.20
2019-04-27T17:06:49.321Z,9.20
2019-04-27T17:08:52.491Z,9.10
2019-04-27T17:10:59.248Z,9.10
2019-04-27T17:13:05.846Z,9.10
2019-04-27T17:15:25.918Z,9.20
2019-04-27T17:17:47.062Z,9.10
2019-04-27T17:19:53.321Z,9.20
2019-04-27T17:21:57.103Z,9.30
2019-04-27T17:24:02.790Z,9.20
2019-04-27T17:26:20.222Z,9.30
2019-04-27T17:28:15.866Z,9.20
2019-04-27T17:30:18.910Z,9.20
2019-04-27T17:32:30.262Z,9.20
2019-04-27T17:34:32.234Z,9.20
2019-04-27T17:36:36.005Z,9.30
2019-04-27T17:38:42.595Z,9.30
2019-04-27T17:40:45.022Z,9.30
2019-04-27T17:42:48.745Z,9.30
2019-04-27T17:44:53.054Z,9.30
2019-04-27T17:46:57.779Z,9.30
2019-04-27T17:49:01.354Z,9.30
2019-04-27T17:51:06.176Z,9.30
2019-04-27T17:53:09.913Z,9.30
2019-04-27T17:55:13.578Z,9.30
2019-04-27T17:57:22.261Z,9.30
2019-04-27T17:59:24.354Z,9.20
2019-04-27T18:01:30.170Z,9.20
2019-04-27T18:03:33.355Z,9.20
2019-04-27T18:05:38.901Z,9.20
2019-04-27T18:07:44.227Z,9.10
2019-04-27T18:09:48.312Z,9.20
2019-04-27T18:11:54.539Z,9.10
2019-04-27T18:14:00.394Z,8.90
2019-04-27T18:16:03.706Z,8.70
2019-04-27T18:18:27.062Z,8.50
2019-04-27T18:20:30.680Z,8.50
2019-04-27T18:22:36.533Z,8.40
2019-04-27T18:24:42.996Z,8.30
2019-04-27T18:27:06.422Z,8.30
2019-04-27T18:29:10.141Z,8.20
2019-04-27T18:31:17.824Z,8.10
2019-04-27T18:33:21.609Z,8.00
2019-04-27T18:35:26.365Z,7.80
2019-04-27T18:37:30.505Z,7.70
2019-04-27T18:39:34.120Z,7.70
2019-04-27T18:41:40.007Z,7.70
2019-04-27T18:43:50.661Z,7.60
2019-04-27T18:45:48.694Z,7.70
2019-04-27T18:47:54.042Z,7.60
2019-04-27T18:50:11.008Z,7.50
2019-04-27T18:52:23.947Z,7.50
2019-04-27T18:54:28.789Z,7.40
2019-04-27T18:56:33.309Z,7.40
2019-04-27T18:58:37.741Z,7.40
2019-04-27T19:00:41.591Z,7.40
2019-04-27T19:02:45.274Z,7.40
2019-04-27T19:04:50.158Z,7.40
2019-04-27T19:06:53.841Z,7.40
2019-04-27T19:08:58.968Z,7.40
2019-04-27T19:11:04.815Z,7.40
2019-04-27T19:13:08.797Z,7.40
2019-04-27T19:15:12.659Z,7.30
2019-04-27T19:17:19.518Z,7.20
2019-04-27T19:19:21.739Z,7.20
2019-04-27T19:21:25.321Z,7.20
2019-04-27T19:23:29.654Z,7.10
2019-04-27T19:25:49.833Z,7.00
2019-04-27T19:27:58.253Z,7.00
2019-04-27T19:30:15.430Z,7.00
2019-04-27T19:32:19.129Z,6.90
2019-04-27T19:34:22.816Z,6.80
2019-04-27T19:36:27.938Z,6.80
2019-04-27T19:38:31.737Z,6.80
2019-04-27T19:40:35.388Z,6.80
2019-04-27T19:42:38.993Z,6.70
2019-04-27T19:44:42.533Z,6.60
2019-04-27T19:46:46.145Z,6.60
2019-04-27T19:48:50.048Z,6.60
2019-04-27T19:51:28.241Z,6.60
2019-04-27T19:53:01.863Z,6.80
2019-04-27T19:55:08.503Z,6.80
2019-04-27T19:57:12.342Z,6.90
2019-04-27T19:59:18.795Z,6.90
2019-04-27T20:01:50.465Z,6.90
2019-04-27T20:03:55.851Z,6.90
2019-04-27T20:06:08.330Z,6.90
2019-04-27T20:08:18.039Z,6.90
2019-04-27T20:10:21.001Z,6.90
2019-04-27T20:12:25.000Z,6.90
2019-04-27T20:14:30.914Z,7.00
2019-04-27T20:16:34.839Z,7.00
2019-04-27T20:18:38.747Z,7.10
2019-04-27T20:20:52.260Z,7.10
2019-04-27T20:22:56.220Z,7.00
2019-04-27T20:25:01.550Z,7.10
2019-04-27T20:27:05.850Z,7.10
2019-04-27T20:29:09.499Z,7.00
2019-04-27T20:31:13.183Z,7.00
2019-04-27T20:33:17.234Z,7.00
2019-04-27T20:35:21.980Z,6.90
2019-04-27T20:37:25.888Z,6.90
2019-04-27T20:39:29.471Z,7.00
2019-04-27T20:41:33.337Z,7.00
2019-04-27T20:43:37.089Z,7.00
2019-04-27T20:45:41.362Z,7.00
2019-04-27T20:47:45.169Z,7.10
2019-04-27T20:49:48.899Z,7.10
2019-04-27T20:52:03.372Z,7.10
2019-04-27T20:54:07.151Z,7.10
2019-04-27T20:56:10.834Z,7.10
2019-04-27T20:58:14.837Z,7.00
2019-04-27T21:00:21.946Z,7.10
2019-04-27T21:02:32.337Z,7.10
2019-04-27T21:04:37.789Z,7.10
2019-04-27T21:06:43.056Z,7.10
2019-04-27T21:08:46.773Z,7.10
2019-04-27T21:10:51.578Z,7.10
2019-04-27T21:12:55.314Z,7.10
2019-04-27T21:14:59.021Z,7.10
2019-04-27T21:17:02.747Z,7.10
2019-04-27T21:19:06.533Z,7.10
2019-04-27T21:21:11.379Z,7.10
2019-04-27T21:23:15.159Z,7.10
2019-04-27T21:25:18.981Z,7.00
2019-04-27T21:27:22.657Z,7.10
2019-04-27T21:29:26.251Z,7.10
2019-04-27T21:31:31.572Z,7.10
2019-04-27T21:33:35.362Z,7.10
2019-04-27T21:35:38.909Z,7.00
2019-04-27T21:37:42.603Z,7.00
2019-04-27T21:39:46.186Z,7.00
2019-04-27T21:41:51.683Z,7.00
2019-04-27T21:43:55.572Z,7.00
2019-04-27T21:45:59.238Z,7.00
2019-04-27T21:48:02.891Z,7.00
2019-04-27T21:50:07.709Z,7.00
2019-04-27T21:52:18.989Z,6.90
2019-04-27T21:54:24.306Z,6.90
2019-04-27T21:56:27.977Z,6.90
2019-04-27T21:58:33.338Z,6.90
2019-04-27T22:00:42.921Z,6.90
2019-04-27T22:02:47.132Z,6.90
2019-04-27T22:04:51.820Z,7.00
2019-04-27T22:06:55.425Z,7.00
2019-04-27T22:09:01.167Z,6.90
2019-04-27T22:11:04.507Z,6.90
2019-04-27T22:13:08.280Z,6.80
2019-04-27T22:15:12.001Z,6.80
2019-04-27T22:17:15.564Z,6.70
2019-04-27T22:19:20.581Z,6.70
2019-04-27T22:21:24.528Z,6.60
2019-04-27T22:23:31.526Z,6.60
2019-04-27T22:25:36.565Z,6.60
2019-04-27T22:27:41.385Z,6.50
2019-04-27T22:29:45.247Z,6.40
2019-04-27T22:31:48.893Z,6.30
2019-04-27T22:33:54.687Z,6.20
2019-04-27T22:35:57.967Z,6.30
2019-04-27T22:38:02.007Z,6.20
2019-04-27T22:40:13.136Z,6.20
2019-04-27T22:42:23.238Z,6.20
2019-04-27T22:44:28.604Z,6.30
2019-04-27T22:46:33.919Z,6.20
2019-04-27T22:48:37.606Z,6.20
2019-04-27T22:50:41.436Z,6.20
2019-04-27T22:52:45.125Z,6.20
2019-04-27T22:54:48.796Z,6.20
2019-04-27T22:56:54.080Z,6.10
2019-04-27T22:59:03.184Z,6.10
2019-04-27T23:01:12.477Z,6.10
2019-04-27T23:03:17.947Z,6.10
2019-04-27T23:05:21.760Z,6.10
2019-04-27T23:07:25.425Z,6.00
2019-04-27T23:09:29.117Z,6.00
2019-04-27T23:11:32.746Z,5.90
2019-04-27T23:13:36.412Z,5.90
2019-04-27T23:15:41.800Z,5.90
2019-04-27T23:17:47.066Z,5.90
2019-04-27T23:19:51.073Z,5.90
2019-04-27T23:21:54.858Z,5.80
2019-04-27T23:23:58.433Z,5.90
2019-04-27T23:26:02.073Z,5.90
2019-04-27T23:28:05.715Z,5.90
2019-04-27T23:30:11.353Z,5.80
2019-04-27T23:32:21.441Z,5.80
2019-04-27T23:34:24.989Z,5.80
2019-04-27T23:36:28.694Z,5.80
2019-04-27T23:38:32.334Z,5.70
2019-04-27T23:40:36.105Z,5.70
2019-04-27T23:42:41.493Z,5.70
2019-04-27T23:44:45.139Z,5.70
2019-04-27T23:46:48.816Z,5.70
2019-04-27T23:48:53.875Z,5.70
2019-04-27T23:50:59.231Z,5.70
2019-04-27T23:53:13.209Z,5.70
2019-04-27T23:55:16.980Z,5.70
2019-04-27T23:57:21.801Z,5.70
2019-04-27T23:59:25.563Z,5.60
